Time;durP1;ratioP1;P1;durP2;ratioP2;P2;SDS_P1;SDS_P2;PMS_P1;PMS_P2;Temp;Humidity;BMP_temperature;BMP_pressure;BME280_temperature;BME280_humidity;BME280_pressure;Samples;Min_cycle;Max_cycle;Signal;HPM_P1;HPM_P2
2021/06/09 00:00:09;;;;;;;8.50;3.45;;;14.30;99.90;;;;;;2103891;28;20154;-66
2021/06/09 00:01:10;;;;;;;9.93;3.55;;;14.30;99.90;;;;;;2104026;28;20607;-66
2021/06/09 00:02:11;;;;;;;8.35;3.28;;;14.30;99.90;;;;;;2103600;28;20495;-66
2021/06/09 00:03:11;;;;;;;8.00;3.40;;;14.30;99.90;;;;;;2098745;28;20047;-66
2021/06/09 00:04:12;;;;;;;13.90;4.00;;;14.30;99.90;;;;;;2097976;28;20074;-66
2021/06/09 00:05:13;;;;;;;8.85;3.75;;;14.30;99.90;;;;;;2096031;28;20032;-66
2021/06/09 00:06:14;;;;;;;9.52;3.70;;;14.30;99.90;;;;;;2103880;28;20013;-67
2021/06/09 00:07:15;;;;;;;10.00;3.67;;;14.30;99.90;;;;;;2103843;28;20027;-66
2021/06/09 00:08:16;;;;;;;8.02;4.20;;;14.30;99.90;;;;;;2103655;28;20387;-66
2021/06/09 00:09:17;;;;;;;9.70;3.50;;;14.30;99.90;;;;;;2103513;28;20024;-66
2021/06/09 00:10:18;;;;;;;6.30;3.45;;;14.30;99.90;;;;;;2103952;28;20525;-66
2021/06/09 00:11:19;;;;;;;7.10;3.75;;;14.30;99.90;;;;;;2102971;28;20430;-65
2021/06/09 00:12:20;;;;;;;11.68;4.03;;;14.30;99.90;;;;;;2098563;28;20025;-66
2021/06/09 00:13:27;;;;;;;7.97;3.42;;;14.30;99.90;;;;;;2091300;28;20021;-65
2021/06/09 00:14:28;;;;;;;8.38;3.80;;;14.30;99.90;;;;;;2090982;28;20028;-66
2021/06/09 00:15:29;;;;;;;9.63;3.85;;;14.30;99.90;;;;;;2091059;28;20108;-66
2021/06/09 00:16:29;;;;;;;10.50;3.95;;;14.30;99.90;;;;;;2096529;28;20107;-66
2021/06/09 00:17:30;;;;;;;9.88;4.13;;;14.30;99.90;;;;;;2096957;28;20029;-66
2021/06/09 00:18:31;;;;;;;7.13;3.60;;;14.30;99.90;;;;;;2097546;28;20024;-67
2021/06/09 00:19:32;;;;;;;7.75;3.83;;;14.30;99.90;;;;;;2096314;28;20025;-66
2021/06/09 00:20:33;;;;;;;7.57;3.70;;;14.30;99.90;;;;;;2098236;28;20025;-66
2021/06/09 00:21:33;;;;;;;7.57;3.40;;;14.30;99.90;;;;;;2098291;28;20150;-66
2021/06/09 00:22:34;;;;;;;12.95;4.50;;;14.30;99.90;;;;;;2096735;28;20048;-66
2021/06/09 00:23:36;;;;;;;8.63;3.60;;;14.30;99.90;;;;;;2090998;28;20108;-66
2021/06/09 00:24:38;;;;;;;10.20;4.07;;;14.30;99.90;;;;;;2091909;28;20024;-66
2021/06/09 00:25:38;;;;;;;;;;;14.30;99.90;;;;;;2089700;28;20618;-66
2021/06/09 00:26:39;;;;;;;13.15;3.83;;;14.30;99.90;;;;;;2094312;28;19912;-67
2021/06/09 00:27:40;;;;;;;7.18;3.63;;;14.30;99.90;;;;;;2098343;28;20021;-67
2021/06/09 00:28:41;;;;;;;10.85;4.07;;;14.30;99.90;;;;;;2098100;28;20432;-66
2021/06/09 00:29:42;;;;;;;11.20;4.03;;;14.30;99.90;;;;;;2098179;28;20023;-66
2021/06/09 00:30:44;;;;;;;9.32;3.83;;;14.30;99.90;;;;;;2098327;28;20150;-67
2021/06/09 00:31:45;;;;;;;9.50;3.95;;;14.30;99.90;;;;;;2098251;28;20572;-67
2021/06/09 00:32:45;;;;;;;11.65;4.30;;;14.30;99.90;;;;;;2095375;28;20047;-67
2021/06/09 00:33:47;;;;;;;7.88;4.10;;;14.20;99.90;;;;;;2097322;28;20488;-67
2021/06/09 00:34:47;;;;;;;10.43;4.77;;;14.20;99.90;;;;;;2097420;28;20055;-67
2021/06/09 00:35:48;;;;;;;10.82;4.45;;;14.30;99.90;;;;;;2089982;28;20290;-67
2021/06/09 00:36:49;;;;;;;8.38;5.03;;;14.30;99.90;;;;;;2093640;28;20021;-67
2021/06/09 00:37:49;;;;;;;10.88;4.43;;;14.20;99.90;;;;;;2097598;28;20024;-67
2021/06/09 00:38:50;;;;;;;8.88;4.50;;;14.30;99.90;;;;;;2097960;28;20033;-67
2021/06/09 00:39:51;;;;;;;10.48;4.90;;;14.20;99.90;;;;;;2093568;28;20055;-67
2021/06/09 00:40:52;;;;;;;15.13;5.13;;;14.20;99.90;;;;;;2091801;28;20369;-67
2021/06/09 00:41:52;;;;;;;12.07;4.70;;;14.30;99.90;;;;;;2093923;28;20027;-67
2021/06/09 00:43:11;;;;;;;12.57;5.55;;;14.20;99.90;;;;;;2097518;28;20096;-67
2021/06/09 00:44:11;;;;;;;12.60;5.63;;;14.20;99.90;;;;;;2090433;28;20058;-67
2021/06/09 00:45:13;;;;;;;9.13;5.10;;;14.30;99.90;;;;;;2093512;28;20671;-66
2021/06/09 00:46:14;;;;;;;11.73;5.47;;;14.20;99.90;;;;;;2091516;28;20029;-67
2021/06/09 00:47:22;;;;;;;11.75;5.15;;;14.20;99.90;;;;;;2095710;28;20027;-67
2021/06/09 00:48:29;;;;;;;14.55;5.05;;;14.20;99.90;;;;;;2097165;28;20075;-66
2021/06/09 00:49:29;;;;;;;11.75;5.20;;;14.20;99.90;;;;;;2097522;28;20013;-66
2021/06/09 00:50:30;;;;;;;12.65;5.03;;;14.20;99.90;;;;;;2098038;28;20025;-67
2021/06/09 00:51:31;;;;;;;10.80;5.00;;;14.20;99.90;;;;;;2098195;28;20024;-66
2021/06/09 00:52:32;;;;;;;12.27;5.28;;;14.10;99.90;;;;;;2098047;28;20024;-67
2021/06/09 00:53:34;;;;;;;18.50;6.00;;;14.10;99.90;;;;;;2091739;28;20116;-67
2021/06/09 00:54:35;;;;;;;13.82;4.90;;;14.10;99.90;;;;;;2089372;28;20021;-67
2021/06/09 00:55:36;;;;;;;12.55;5.10;;;14.10;99.90;;;;;;2094972;28;20023;-68
2021/06/09 00:56:38;;;;;;;12.00;5.00;;;14.10;99.90;;;;;;2098049;28;20099;-67
2021/06/09 00:57:40;;;;;;;13.82;5.95;;;14.00;99.90;;;;;;2097952;28;20020;-67
2021/06/09 00:58:43;;;;;;;9.43;5.20;;;14.00;99.90;;;;;;2097781;28;20095;-67
2021/06/09 00:59:44;;;;;;;12.35;5.38;;;14.00;99.90;;;;;;2098041;28;20038;-67
2021/06/09 01:00:45;;;;;;;11.13;5.30;;;14.00;99.90;;;;;;2097891;28;20403;-67
2021/06/09 01:01:46;;;;;;;11.85;5.63;;;14.00;99.90;;;;;;2095844;28;20119;-67
2021/06/09 01:02:46;;;;;;;12.57;5.77;;;14.00;99.90;;;;;;2089526;28;20029;-67
2021/06/09 01:03:48;;;;;;;10.63;5.30;;;14.00;99.90;;;;;;2097035;28;20267;-67
2021/06/09 01:04:48;;;;;;;11.30;5.38;;;14.00;99.90;;;;;;2097439;28;20027;-67
2021/06/09 01:05:49;;;;;;;11.02;4.97;;;14.00;99.90;;;;;;2094494;28;20729;-67
2021/06/09 01:06:50;;;;;;;9.38;4.70;;;14.00;99.90;;;;;;2097513;28;20052;-67
2021/06/09 01:07:50;;;;;;;13.38;5.28;;;14.00;99.90;;;;;;2097269;28;20048;-67
2021/06/09 01:08:52;;;;;;;14.65;5.30;;;13.90;99.90;;;;;;2094952;28;20032;-67
2021/06/09 01:09:53;;;;;;;9.70;5.20;;;13.90;99.90;;;;;;2089358;28;20048;-67
2021/06/09 01:10:54;;;;;;;9.77;5.40;;;13.90;99.90;;;;;;2094873;28;20017;-67
2021/06/09 01:11:55;;;;;;;12.55;4.95;;;13.90;99.90;;;;;;2097209;28;20123;-67
2021/06/09 01:12:57;;;;;;;8.10;5.13;;;13.90;99.90;;;;;;2097217;28;20456;-67
2021/06/09 01:13:58;;;;;;;;;;;13.90;99.90;;;;;;2098074;28;20032;-67
2021/06/09 01:15:00;;;;;;;11.15;5.15;;;13.90;99.90;;;;;;2098032;28;19904;-67
2021/06/09 01:16:01;;;;;;;12.57;5.05;;;13.90;99.90;;;;;;2097800;28;20019;-67
2021/06/09 01:17:01;;;;;;;10.18;4.45;;;13.90;99.90;;;;;;2098013;28;20036;-67
2021/06/09 01:18:03;;;;;;;12.15;4.93;;;13.90;99.90;;;;;;2090913;28;20018;-67
2021/06/09 01:19:04;;;;;;;8.27;4.53;;;13.90;99.90;;;;;;2094001;28;20024;-67
2021/06/09 01:20:05;;;;;;;12.00;4.97;;;13.80;99.90;;;;;;2092447;28;20040;-68
2021/06/09 01:21:06;;;;;;;17.23;5.20;;;13.80;99.90;;;;;;2094898;28;20439;-67
2021/06/09 01:22:07;;;;;;;12.43;4.70;;;13.80;99.90;;;;;;2097828;28;20052;-68
2021/06/09 01:23:08;;;;;;;15.52;5.13;;;13.80;99.90;;;;;;2097639;28;20020;-67
2021/06/09 01:24:09;;;;;;;9.25;4.57;;;13.80;99.90;;;;;;2097692;28;20013;-67
2021/06/09 01:25:10;;;;;;;8.38;4.45;;;13.70;99.90;;;;;;2094902;28;20393;-68
2021/06/09 01:26:11;;;;;;;15.35;5.18;;;13.70;99.90;;;;;;2096791;28;20028;-68
2021/06/09 01:27:12;;;;;;;9.23;5.30;;;13.70;99.90;;;;;;2097130;28;20122;-67
2021/06/09 01:28:13;;;;;;;10.25;4.97;;;13.70;99.90;;;;;;2092673;28;20016;-67
2021/06/09 01:29:17;;;;;;;9.50;4.75;;;13.70;99.90;;;;;;2097010;28;20063;-67
2021/06/09 01:30:19;;;;;;;9.52;4.60;;;13.60;99.90;;;;;;2097634;28;20013;-68
2021/06/09 01:31:20;;;;;;;10.65;5.13;;;13.70;99.90;;;;;;2097704;28;20111;-67
2021/06/09 01:32:21;;;;;;;12.82;5.50;;;13.70;99.90;;;;;;2097041;28;20024;-67
2021/06/09 01:33:23;;;;;;;11.75;5.32;;;13.70;99.90;;;;;;2096875;28;20020;-67
2021/06/09 01:34:24;;;;;;;8.88;4.72;;;13.70;99.90;;;;;;2096114;28;20067;-67
2021/06/09 01:35:24;;;;;;;11.50;5.18;;;13.70;99.90;;;;;;2081174;28;20033;-67
2021/06/09 01:36:25;;;;;;;13.38;5.80;;;13.70;99.90;;;;;;2090242;28;20032;-67
2021/06/09 01:37:26;;;;;;;12.43;5.85;;;13.70;99.90;;;;;;2090010;28;20018;-67
2021/06/09 01:38:27;;;;;;;9.55;5.65;;;13.70;99.90;;;;;;2093198;28;20008;-67
2021/06/09 01:39:28;;;;;;;9.75;5.43;;;13.80;99.90;;;;;;2097690;28;20027;-67
2021/06/09 01:40:29;;;;;;;13.55;6.00;;;13.70;99.90;;;;;;2097345;28;20025;-67
2021/06/09 01:41:29;;;;;;;9.25;5.43;;;13.80;99.90;;;;;;2097600;28;20032;-67
2021/06/09 01:42:31;;;;;;;10.10;5.45;;;13.70;99.90;;;;;;2096439;28;20384;-67
2021/06/09 01:43:32;;;;;;;10.05;5.40;;;13.70;99.90;;;;;;2091927;28;20037;-67
2021/06/09 01:44:37;;;;;;;13.70;5.50;;;13.70;99.90;;;;;;2088785;28;20021;-67
2021/06/09 01:45:38;;;;;;;10.05;5.97;;;13.70;99.90;;;;;;2095798;28;20115;-67
2021/06/09 01:46:40;;;;;;;12.82;5.55;;;13.60;99.90;;;;;;2097061;28;20020;-67
2021/06/09 01:47:41;;;;;;;8.55;5.38;;;13.60;99.90;;;;;;2097580;28;20028;-66
2021/06/09 01:48:43;;;;;;;12.47;5.10;;;13.60;99.90;;;;;;2097486;28;20043;-67
2021/06/09 01:49:43;;;;;;;8.25;5.15;;;13.60;99.90;;;;;;2089745;28;20263;-67
2021/06/09 01:50:45;;;;;;;11.23;5.47;;;13.60;99.90;;;;;;2089925;28;20048;-67
2021/06/09 01:51:46;;;;;;;11.05;5.38;;;13.60;99.90;;;;;;2090942;28;20031;-66
2021/06/09 01:52:48;;;;;;;8.77;4.55;;;13.60;99.90;;;;;;2096964;28;20529;-67
2021/06/09 01:53:49;;;;;;;12.00;4.90;;;13.60;99.90;;;;;;2096973;28;20023;-67
2021/06/09 01:54:50;;;;;;;10.55;5.43;;;13.60;99.90;;;;;;2097653;28;20033;-66
2021/06/09 01:55:51;;;;;;;7.38;4.80;;;13.60;99.90;;;;;;2096443;28;20066;-67
2021/06/09 01:56:53;;;;;;;7.63;4.80;;;13.60;99.90;;;;;;2095594;28;20454;-67
2021/06/09 01:57:54;;;;;;;9.88;5.18;;;13.60;99.90;;;;;;2092876;28;20029;-67
2021/06/09 01:58:54;;;;;;;11.98;5.03;;;13.60;99.90;;;;;;2093637;28;20099;-66
2021/06/09 01:59:55;;;;;;;11.73;5.55;;;13.60;99.90;;;;;;2089654;28;20031;-67
2021/06/09 02:00:56;;;;;;;10.35;5.00;;;13.70;99.90;;;;;;2096377;28;20412;-67
2021/06/09 02:01:57;;;;;;;8.73;4.97;;;13.70;99.90;;;;;;2097199;28;20052;-67
2021/06/09 02:02:59;;;;;;;9.88;5.38;;;13.70;99.90;;;;;;2097426;28;20033;-67
2021/06/09 02:03:59;;;;;;;8.13;4.82;;;13.70;99.90;;;;;;2097476;28;20519;-67
2021/06/09 02:05:00;;;;;;;16.85;5.65;;;13.80;99.90;;;;;;2097672;28;20029;-67
2021/06/09 02:06:01;;;;;;;9.48;4.93;;;13.80;99.90;;;;;;2096545;28;20009;-67
2021/06/09 02:07:02;;;;;;;8.52;5.07;;;13.80;99.90;;;;;;2090542;28;20033;-67
2021/06/09 02:08:08;;;;;;;14.05;5.57;;;13.80;99.90;;;;;;2089387;28;20052;-67
2021/06/09 02:09:10;;;;;;;10.88;4.93;;;13.80;99.90;;;;;;2093871;28;20565;-67
2021/06/09 02:10:14;;;;;;;7.05;4.85;;;13.80;99.90;;;;;;2096758;28;20055;-67
2021/06/09 02:11:15;;;;;;;9.98;4.63;;;13.80;99.90;;;;;;2096404;28;20024;-67
2021/06/09 02:12:20;;;;;;;8.63;4.75;;;13.80;99.90;;;;;;2096609;28;20033;-67
2021/06/09 02:13:22;;;;;;;10.35;4.60;;;13.80;99.90;;;;;;2090749;28;20032;-67
2021/06/09 02:14:23;;;;;;;9.70;4.72;;;13.70;99.90;;;;;;2089958;28;20701;-67
2021/06/09 02:15:25;;;;;;;11.82;4.75;;;13.70;99.90;;;;;;2096602;28;20095;-67
2021/06/09 02:16:33;;;;;;;8.68;4.88;;;13.70;99.90;;;;;;2097128;28;20031;-67
2021/06/09 02:17:35;;;;;;;12.27;5.35;;;13.70;99.90;;;;;;2097355;28;20028;-67
2021/06/09 02:18:39;;;;;;;7.80;4.95;;;13.70;99.90;;;;;;2097380;28;20013;-67
2021/06/09 02:19:39;;;;;;;9.30;5.50;;;13.70;99.90;;;;;;2097211;28;20038;-67
2021/06/09 02:20:50;;;;;;;11.45;5.80;;;13.70;99.90;;;;;;2090404;28;20040;-66
2021/06/09 02:21:52;;;;;;;11.45;5.97;;;13.70;99.90;;;;;;2088503;28;20036;-67
2021/06/09 02:22:55;;;;;;;7.93;5.03;;;13.70;99.90;;;;;;2094932;28;20028;-67
2021/06/09 02:23:56;;;;;;;7.88;4.43;;;13.70;99.90;;;;;;2097384;28;20056;-66
2021/06/09 02:24:57;;;;;;;15.65;5.68;;;13.70;99.90;;;;;;2097220;28;20017;-66
2021/06/09 02:25:59;;;;;;;14.05;5.82;;;13.70;99.90;;;;;;2097383;28;20028;-68
2021/06/09 02:27:00;;;;;;;;;;;13.60;99.90;;;;;;2097492;28;20020;-66
2021/06/09 02:28:04;;;;;;;10.10;5.30;;;13.60;99.90;;;;;;2095377;28;19909;-67
2021/06/09 02:29:07;;;;;;;14.23;5.43;;;13.60;99.90;;;;;;2088441;28;20029;-67
2021/06/09 02:30:08;;;;;;;10.13;5.13;;;13.60;99.90;;;;;;2088206;28;20095;-68
2021/06/09 02:31:09;;;;;;;8.38;4.72;;;13.60;99.90;;;;;;2096614;28;20075;-69
2021/06/09 02:32:09;;;;;;;8.32;5.28;;;13.60;99.90;;;;;;2105141;28;20051;-67
2021/06/09 02:33:12;;;;;;;9.82;5.47;;;13.60;99.90;;;;;;2097237;28;20056;-67
2021/06/09 02:34:23;;;;;;;8.23;5.20;;;13.60;99.90;;;;;;2097437;28;20024;-66
2021/06/09 02:35:26;;;;;;;17.42;5.28;;;13.60;99.90;;;;;;2096436;28;20435;-66
2021/06/09 02:36:27;;;;;;;6.32;4.68;;;13.50;99.90;;;;;;2094459;28;20021;-67
2021/06/09 02:37:28;;;;;;;8.88;5.00;;;13.50;99.90;;;;;;2088899;28;20040;-67
2021/06/09 02:38:29;;;;;;;8.35;5.00;;;13.50;99.90;;;;;;2092628;28;20510;-67
2021/06/09 02:39:30;;;;;;;15.88;5.40;;;13.50;99.90;;;;;;2089042;28;20106;-67
2021/06/09 02:40:31;;;;;;;7.60;5.25;;;13.50;99.90;;;;;;2095270;28;20032;-67
2021/06/09 02:41:32;;;;;;;8.85;5.53;;;13.50;99.90;;;;;;2093985;28;20038;-67
2021/06/09 02:42:33;;;;;;;8.23;4.85;;;13.50;99.90;;;;;;2088703;28;20522;-67
2021/06/09 02:43:33;;;;;;;9.52;5.78;;;13.50;99.90;;;;;;2090717;28;20038;-67
2021/06/09 02:44:34;;;;;;;10.07;4.88;;;13.50;99.90;;;;;;2088999;28;20067;-67
2021/06/09 02:45:35;;;;;;;7.35;4.97;;;13.50;99.90;;;;;;2095728;28;20027;-67
2021/06/09 02:46:39;;;;;;;11.10;5.25;;;13.50;99.90;;;;;;2096547;28;20024;-67
2021/06/09 02:47:45;;;;;;;12.60;5.18;;;13.50;99.90;;;;;;2096663;28;20021;-67
2021/06/09 02:48:52;;;;;;;9.38;5.35;;;13.50;99.90;;;;;;2089662;28;20017;-67
2021/06/09 02:49:55;;;;;;;8.93;5.80;;;13.50;99.90;;;;;;2089110;28;20480;-67
2021/06/09 02:51:00;;;;;;;13.00;5.80;;;13.50;99.90;;;;;;2089900;28;20105;-67
2021/06/09 02:52:22;;;;;;;11.75;5.32;;;13.40;99.90;;;;;;2092646;28;20090;-67
2021/06/09 02:53:36;;;;;;;7.55;4.75;;;13.50;99.90;;;;;;2097196;28;20488;-67
2021/06/09 02:54:54;;;;;;;9.48;5.15;;;13.50;99.90;;;;;;2097166;28;20081;-67
2021/06/09 02:56:29;;;;;;;9.45;4.85;;;13.40;99.90;;;;;;2096266;28;20029;-67
2021/06/09 02:57:51;;;;;;;11.52;5.50;;;13.40;99.90;;;;;;2094766;28;20032;-67
2021/06/09 02:59:20;;;;;;;12.00;5.40;;;13.40;99.90;;;;;;2094341;28;20611;-66
2021/06/09 03:00:35;;;;;;;6.82;4.47;;;13.30;99.90;;;;;;2091293;28;20025;-66
2021/06/09 03:01:58;;;;;;;8.20;5.20;;;13.30;99.90;;;;;;2097127;28;20053;-67
2021/06/09 03:03:13;;;;;;;7.68;5.38;;;13.30;99.90;;;;;;2096433;28;20028;-66
2021/06/09 03:04:36;;;;;;;8.07;5.38;;;13.30;99.90;;;;;;2094075;28;20020;-66
2021/06/09 03:05:42;;;;;;;11.35;5.43;;;13.30;99.90;;;;;;2092609;28;20091;-66
2021/06/09 03:06:54;;;;;;;8.88;5.30;;;13.20;99.90;;;;;;2092428;28;20460;-66
2021/06/09 03:08:31;;;;;;;7.00;5.07;;;13.30;99.90;;;;;;2088097;28;20480;-66
2021/06/09 03:09:41;;;;;;;8.50;5.47;;;13.20;99.90;;;;;;2096579;28;20793;-66
2021/06/09 03:10:49;;;;;;;13.45;5.20;;;13.20;99.90;;;;;;2096272;28;20055;-67
2021/06/09 03:12:12;;;;;;;10.75;5.28;;;13.20;99.90;;;;;;2096525;28;20021;-66
2021/06/09 03:13:28;;;;;;;12.50;5.40;;;13.10;99.90;;;;;;2090558;28;20752;-66
2021/06/09 03:16:04;;;;;;;7.63;5.20;;;13.10;99.90;;;;;;2097195;28;20479;-66
2021/06/09 03:17:13;;;;;;;14.93;5.53;;;13.10;99.90;;;;;;2096323;28;20125;-67
2021/06/09 03:18:37;;;;;;;9.35;5.28;;;13.10;99.90;;;;;;2096546;28;20533;-67
2021/06/09 03:19:40;;;;;;;11.00;4.88;;;13.20;99.90;;;;;;2090488;28;20606;-66
2021/06/09 03:21:01;;;;;;;12.48;5.60;;;13.10;99.90;;;;;;2088986;28;20102;-67
2021/06/09 03:22:23;;;;;;;12.57;5.88;;;13.10;99.90;;;;;;2088485;28;20437;-67
2021/06/09 03:23:47;;;;;;;8.77;5.18;;;13.10;99.90;;;;;;2094938;28;20028;-67
2021/06/09 03:24:53;;;;;;;7.47;4.93;;;13.00;99.90;;;;;;2097060;28;20095;-67
2021/06/09 03:26:23;;;;;;;7.05;5.47;;;13.00;99.90;;;;;;2097220;28;20021;-67
2021/06/09 03:27:51;;;;;;;10.55;5.32;;;13.00;99.90;;;;;;2088517;28;20055;-66
2021/06/09 03:29:42;;;;;;;8.52;5.10;;;12.90;99.90;;;;;;2093672;28;20052;-66
2021/06/09 03:30:49;;;;;;;11.07;5.30;;;12.90;99.90;;;;;;2079282;28;20022;-66
2021/06/09 03:31:58;;;;;;;7.90;5.15;;;12.80;99.90;;;;;;2093826;28;20075;-66
2021/06/09 03:33:02;;;;;;;8.38;5.40;;;12.90;99.90;;;;;;2096261;28;20063;-66
2021/06/09 03:34:12;;;;;;;12.43;5.93;;;12.90;99.90;;;;;;2096364;28;20446;-66
2021/06/09 03:35:37;;;;;;;10.57;5.57;;;12.90;99.90;;;;;;2089192;28;20617;-66
2021/06/09 03:36:41;;;;;;;8.52;4.90;;;12.90;99.90;;;;;;2090106;28;20569;-66
2021/06/09 03:37:56;;;;;;;10.02;5.28;;;12.80;99.90;;;;;;2088285;28;20032;-66
2021/06/09 03:39:00;;;;;;;10.43;5.03;;;12.80;99.90;;;;;;2093999;28;20025;-66
2021/06/09 03:40:04;;;;;;;7.25;5.00;;;12.80;99.90;;;;;;2096836;28;20047;-66
2021/06/09 03:41:09;;;;;;;7.55;4.80;;;12.80;99.90;;;;;;2092014;28;20025;-66
2021/06/09 03:42:13;;;;;;;8.63;4.80;;;12.80;99.90;;;;;;2095412;28;20008;-65
2021/06/09 03:43:14;;;;;;;10.95;5.22;;;12.80;99.90;;;;;;2096758;28;20044;-66
2021/06/09 03:44:19;;;;;;;8.68;4.75;;;12.90;99.90;;;;;;2097144;28;20096;-66
2021/06/09 03:45:25;;;;;;;8.73;4.75;;;12.80;99.90;;;;;;2096861;28;20427;-66
2021/06/09 03:46:27;;;;;;;9.95;5.30;;;12.80;99.90;;;;;;2096343;28;20422;-66
2021/06/09 03:47:29;;;;;;;8.13;5.30;;;12.80;99.90;;;;;;2088273;28;20033;-66
2021/06/09 03:48:31;;;;;;;7.75;4.50;;;12.80;99.90;;;;;;2092083;28;20127;-66
2021/06/09 03:49:32;;;;;;;11.65;5.22;;;12.80;99.90;;;;;;2086732;28;20037;-66
2021/06/09 03:50:34;;;;;;;7.60;4.90;;;12.80;99.90;;;;;;2097614;28;20048;-66
2021/06/09 03:51:41;;;;;;;9.00;4.93;;;12.80;99.90;;;;;;2090229;28;20423;-66
2021/06/09 03:52:45;;;;;;;11.13;6.45;;;12.90;99.90;;;;;;2097605;28;20291;-66
2021/06/09 03:53:48;;;;;;;10.05;5.93;;;12.90;99.90;;;;;;2097539;28;20024;-66
2021/06/09 03:54:55;;;;;;;8.77;5.10;;;12.90;99.90;;;;;;2098513;28;20027;-66
2021/06/09 03:56:03;;;;;;;11.43;5.03;;;13.00;99.90;;;;;;2097438;28;20016;-66
2021/06/09 03:57:05;;;;;;;7.85;5.50;;;13.00;99.90;;;;;;2092926;28;20020;-66
2021/06/09 03:58:13;;;;;;;11.27;5.88;;;13.00;99.90;;;;;;2091197;28;20029;-66
2021/06/09 03:59:14;;;;;;;8.70;6.05;;;13.00;99.90;;;;;;2093250;28;20025;-66
2021/06/09 04:00:16;;;;;;;10.15;7.28;;;13.10;99.90;;;;;;2091060;28;20055;-66
2021/06/09 04:01:19;;;;;;;8.55;6.43;;;13.10;99.90;;;;;;2097565;28;20168;-66
2021/06/09 04:02:21;;;;;;;9.38;6.72;;;13.10;99.90;;;;;;2097602;28;20095;-66
2021/06/09 04:03:23;;;;;;;10.45;6.55;;;13.20;99.90;;;;;;2098368;28;20130;-66
2021/06/09 04:04:26;;;;;;;11.85;6.60;;;13.20;99.90;;;;;;2098281;28;20510;-65
2021/06/09 04:05:28;;;;;;;12.57;6.35;;;13.20;99.90;;;;;;2098131;28;20036;-66
2021/06/09 04:06:30;;;;;;;10.02;6.78;;;13.20;99.90;;;;;;2089764;28;20029;-66
2021/06/09 04:07:31;;;;;;;12.38;6.88;;;13.20;99.90;;;;;;2095247;28;20028;-66
2021/06/09 04:08:35;;;;;;;9.98;6.88;;;13.20;99.90;;;;;;2090253;28;20547;-66
2021/06/09 04:09:39;;;;;;;12.18;7.03;;;13.30;99.90;;;;;;2089382;28;20032;-67
2021/06/09 04:10:42;;;;;;;13.25;7.05;;;13.30;99.90;;;;;;2090299;28;20020;-66
2021/06/09 04:11:44;;;;;;;15.38;7.95;;;13.40;99.90;;;;;;2095444;28;20028;-65
2021/06/09 04:12:45;;;;;;;13.27;6.90;;;13.40;99.90;;;;;;2091829;28;20035;-66
2021/06/09 04:13:47;;;;;;;13.48;6.93;;;13.40;99.90;;;;;;2090757;28;20033;-66
2021/06/09 04:14:50;;;;;;;17.08;7.22;;;13.40;99.90;;;;;;2098491;28;20066;-66
2021/06/09 04:15:52;;;;;;;14.55;6.70;;;13.40;99.90;;;;;;2097499;28;20098;-66
2021/06/09 04:16:54;;;;;;;13.02;7.30;;;13.50;99.90;;;;;;2097831;28;20102;-66
2021/06/09 04:17:56;;;;;;;13.80;7.05;;;13.50;99.90;;;;;;2095698;28;20025;-66
2021/06/09 04:18:58;;;;;;;12.38;6.65;;;13.50;99.90;;;;;;2091780;28;20016;-66
2021/06/09 04:20:00;;;;;;;;;;;13.50;99.90;;;;;;2090600;28;20025;-65
2021/06/09 04:21:01;;;;;;;10.57;7.28;;;13.60;99.90;;;;;;2094488;28;19904;-65
2021/06/09 04:22:03;;;;;;;11.27;6.95;;;13.60;99.90;;;;;;2097662;28;20024;-66
2021/06/09 04:23:04;;;;;;;9.90;6.63;;;13.70;99.90;;;;;;2097306;28;20565;-67
2021/06/09 04:24:06;;;;;;;14.70;6.85;;;13.70;99.90;;;;;;2097663;28;20017;-66
2021/06/09 04:25:08;;;;;;;12.57;7.40;;;13.80;99.90;;;;;;2096303;28;20036;-66
2021/06/09 04:26:11;;;;;;;12.32;7.25;;;13.80;99.90;;;;;;2097234;28;20021;-66
2021/06/09 04:27:21;;;;;;;12.02;6.78;;;13.90;99.90;;;;;;2090612;28;20751;-66
2021/06/09 04:28:22;;;;;;;15.48;7.47;;;13.90;99.90;;;;;;2095015;28;20418;-66
2021/06/09 04:29:23;;;;;;;14.80;8.10;;;14.00;99.90;;;;;;2097315;28;20028;-66
2021/06/09 04:30:24;;;;;;;12.25;7.85;;;14.10;99.90;;;;;;2088777;28;20058;-66
2021/06/09 04:31:26;;;;;;;11.65;7.00;;;14.10;99.90;;;;;;2091288;28;20120;-66
2021/06/09 04:32:27;;;;;;;12.63;7.45;;;14.20;99.90;;;;;;2090191;28;20068;-66
2021/06/09 04:33:30;;;;;;;13.13;7.35;;;14.20;99.90;;;;;;2094962;28;20055;-66
2021/06/09 04:34:54;;;;;;;17.83;7.97;;;14.20;99.90;;;;;;2098349;28;20027;-66
2021/06/09 04:35:55;;;;;;;13.60;7.97;;;14.30;99.90;;;;;;2098207;28;20052;-66
2021/06/09 04:36:55;;;;;;;14.60;8.38;;;14.30;99.90;;;;;;2095609;28;20016;-66
2021/06/09 04:37:56;;;;;;;11.80;7.63;;;14.40;99.90;;;;;;2095894;28;20108;-66
2021/06/09 04:38:57;;;;;;;14.55;7.60;;;14.40;99.90;;;;;;2096771;28;20019;-67
2021/06/09 04:39:57;;;;;;;16.80;7.88;;;14.50;99.90;;;;;;2092190;28;20048;-66
2021/06/09 04:40:58;;;;;;;16.92;7.60;;;14.60;99.90;;;;;;2098119;28;20025;-66
2021/06/09 04:41:59;;;;;;;15.52;7.60;;;14.70;99.90;;;;;;2097977;28;20025;-66
2021/06/09 04:43:01;;;;;;;12.38;7.38;;;14.80;99.90;;;;;;2091391;28;20021;-66
2021/06/09 04:44:01;;;;;;;;;;;14.90;99.90;;;;;;2092454;28;20120;-66
2021/06/09 04:45:02;;;;;;;12.50;6.80;;;14.90;99.90;;;;;;2091591;28;19911;-66
2021/06/09 04:46:03;;;;;;;13.05;7.18;;;15.00;99.90;;;;;;2098105;28;20485;-66
2021/06/09 04:47:05;;;;;;;16.83;7.20;;;15.20;99.90;;;;;;2098102;28;20021;-66
2021/06/09 04:48:13;;;;;;;9.55;6.28;;;15.40;99.90;;;;;;2094367;28;20255;-66
2021/06/09 04:49:13;;;;;;;10.13;6.82;;;15.60;99.90;;;;;;2090017;28;20104;-67
2021/06/09 04:50:19;;;;;;;12.40;6.57;;;15.80;99.90;;;;;;2092132;28;20016;-66
2021/06/09 04:51:25;;;;;;;8.38;6.45;;;16.10;99.90;;;;;;2089154;28;20078;-66
2021/06/09 04:52:25;;;;;;;9.50;6.40;;;16.30;99.90;;;;;;2096221;28;20028;-66
2021/06/09 04:53:26;;;;;;;10.73;6.18;;;16.50;99.90;;;;;;2097300;28;20484;-66
2021/06/09 04:54:27;;;;;;;14.40;5.95;;;16.70;99.90;;;;;;2097564;28;20503;-66
2021/06/09 04:55:28;;;;;;;10.85;6.30;;;16.70;99.90;;;;;;2095995;28;20056;-67
2021/06/09 04:56:36;;;;;;;10.57;6.35;;;16.70;99.90;;;;;;2097212;28;20025;-67
2021/06/09 04:57:37;;;;;;;13.68;6.00;;;16.60;99.90;;;;;;2097080;28;20024;-67
2021/06/09 04:58:38;;;;;;;14.00;6.03;;;16.40;99.90;;;;;;2095183;28;20031;-66
2021/06/09 04:59:39;;;;;;;9.82;6.88;;;16.30;99.90;;;;;;2097411;28;20029;-67
2021/06/09 05:00:41;;;;;;;8.20;5.85;;;16.10;99.90;;;;;;2097073;28;20112;-66
2021/06/09 05:01:42;;;;;;;10.00;6.45;;;15.90;99.90;;;;;;2097946;28;20053;-67
2021/06/09 05:02:44;;;;;;;9.85;6.22;;;15.80;99.90;;;;;;2097182;28;20538;-66
2021/06/09 05:03:45;;;;;;;11.57;6.70;;;15.70;99.90;;;;;;2093825;28;20020;-67
2021/06/09 05:04:46;;;;;;;10.90;6.85;;;15.60;99.90;;;;;;2089752;28;20025;-66
2021/06/09 05:05:50;;;;;;;7.97;6.22;;;15.50;99.90;;;;;;2090661;28;20508;-67
2021/06/09 05:06:50;;;;;;;11.60;6.93;;;15.40;99.90;;;;;;2089870;28;20027;-66
2021/06/09 05:07:51;;;;;;;12.27;6.68;;;15.30;99.90;;;;;;2094521;28;20593;-67
2021/06/09 05:08:53;;;;;;;9.13;6.82;;;15.30;99.90;;;;;;2089959;28;20033;-66
2021/06/09 05:09:54;;;;;;;10.23;7.15;;;15.20;99.90;;;;;;2089732;28;20396;-66
2021/06/09 05:10:54;;;;;;;8.52;7.22;;;15.20;99.90;;;;;;2094823;28;20123;-66
2021/06/09 05:12:01;;;;;;;11.60;7.00;;;15.10;99.90;;;;;;2098026;28;20020;-66
2021/06/09 05:13:05;;;;;;;11.57;7.40;;;15.10;99.90;;;;;;2093893;28;20396;-67
2021/06/09 05:14:27;;;;;;;10.48;7.28;;;15.10;99.90;;;;;;2089585;28;20507;-67
2021/06/09 05:15:33;;;;;;;11.07;6.93;;;15.10;99.90;;;;;;2090033;28;20080;-67
2021/06/09 05:16:36;;;;;;;16.55;7.53;;;15.00;99.90;;;;;;2097942;28;20574;-67
2021/06/09 05:17:41;;;;;;;13.02;7.90;;;15.00;99.90;;;;;;2091846;28;20599;-67
2021/06/09 05:18:45;;;;;;;15.70;7.95;;;15.00;99.90;;;;;;2091291;28;20099;-67
2021/06/09 05:19:48;;;;;;;11.30;7.72;;;15.00;99.90;;;;;;2089696;28;20028;-67
2021/06/09 05:20:51;;;;;;;12.02;8.40;;;15.00;99.90;;;;;;2097124;28;20044;-67
2021/06/09 05:21:59;;;;;;;11.85;8.43;;;15.00;99.90;;;;;;2097315;28;20025;-67
2021/06/09 05:23:15;;;;;;;13.73;8.18;;;15.00;99.90;;;;;;2097660;28;20020;-67
2021/06/09 05:24:19;;;;;;;9.82;7.82;;;15.00;99.90;;;;;;2095056;28;20055;-67
2021/06/09 05:25:21;;;;;;;11.57;7.03;;;15.00;99.90;;;;;;2091263;28;20028;-67
2021/06/09 05:26:23;;;;;;;11.02;8.60;;;15.10;99.90;;;;;;2089522;28;20061;-67
2021/06/09 05:27:25;;;;;;;;;;;15.10;99.90;;;;;;2089308;28;20131;-67
2021/06/09 05:28:27;;;;;;;9.25;7.22;;;15.20;99.90;;;;;;2094377;28;19911;-67
2021/06/09 05:29:29;;;;;;;12.23;7.78;;;15.30;99.90;;;;;;2089491;28;20040;-67
2021/06/09 05:30:30;;;;;;;10.75;7.53;;;15.40;99.90;;;;;;2089561;28;20059;-67
2021/06/09 05:31:32;;;;;;;8.13;7.32;;;15.50;99.90;;;;;;2091621;28;20021;-67
2021/06/09 05:32:34;;;;;;;9.95;7.20;;;15.50;99.90;;;;;;2096790;28;20090;-67